Time;durP1;ratioP1;P1;durP2;ratioP2;P2;SDS_P1;SDS_P2;PMS_P1;PMS_P2;Temp;Humidity;BMP_temperature;BMP_pressure;BME280_temperature;BME280_humidity;BME280_pressure;Samples;Min_cycle;Max_cycle;Signal;HPM_P1;HPM_P2
2022/01/12 00:00:51;;;;;;;8.60;7.63;;;1.80;99.90;;;;;;4994598;28;20411;-61
2022/01/12 00:03:17;;;;;;;8.57;7.43;;;1.90;99.90;;;;;;4994312;28;20574;-61
2022/01/12 00:05:43;;;;;;;8.13;7.30;;;1.90;99.90;;;;;;4994855;28;20396;-61
2022/01/12 00:08:09;;;;;;;8.17;6.87;;;1.90;99.90;;;;;;4994508;28;20919;-61
2022/01/12 00:10:35;;;;;;;8.20;7.33;;;1.80;99.90;;;;;;4993993;28;20192;-61
2022/01/12 00:13:00;;;;;;;8.70;7.70;;;1.80;99.90;;;;;;4994467;28;20459;-59
2022/01/12 00:15:26;;;;;;;8.27;7.00;;;1.80;99.90;;;;;;4994221;28;20407;-59
2022/01/12 00:17:52;;;;;;;8.77;7.93;;;1.90;99.90;;;;;;4994619;28;20778;-59
2022/01/12 00:20:17;;;;;;;8.73;7.83;;;1.80;99.90;;;;;;4994533;28;20637;-60
2022/01/12 00:22:43;;;;;;;9.20;8.30;;;1.80;99.90;;;;;;4994374;28;20591;-61
2022/01/12 00:33:12;;;;;;;6.83;6.13;;;1.70;99.90;;;;;;4994226;28;20387;-60
2022/01/12 00:35:40;;;;;;;10.63;6.90;;;1.70;99.90;;;;;;4992780;28;20414;-59
2022/01/12 00:38:06;;;;;;;8.93;8.03;;;1.70;99.90;;;;;;4993248;28;20475;-60
2022/01/12 00:40:33;;;;;;;9.10;7.30;;;1.60;99.90;;;;;;4981668;28;20854;-60
2022/01/12 00:42:59;;;;;;;8.83;7.80;;;1.60;99.90;;;;;;4964855;28;20407;-59
2022/01/12 00:45:25;;;;;;;9.53;8.47;;;1.60;99.90;;;;;;4974651;28;20460;-62
2022/01/12 00:47:50;;;;;;;9.97;8.23;;;1.50;99.90;;;;;;4974378;28;20416;-61
2022/01/12 00:50:17;;;;;;;7.80;7.00;;;1.50;99.90;;;;;;4989837;28;20180;-62
2022/01/12 00:52:43;;;;;;;7.90;7.10;;;1.50;99.90;;;;;;4991572;28;20175;-60
2022/01/12 00:55:09;;;;;;;8.73;7.53;;;1.50;99.90;;;;;;4974188;28;20973;-60
2022/01/12 00:57:34;;;;;;;8.03;7.07;;;1.50;99.90;;;;;;4997536;28;20200;-60
2022/01/12 01:00:00;;;;;;;8.10;7.20;;;1.50;99.90;;;;;;4998797;28;20417;-60
2022/01/12 01:02:26;;;;;;;8.90;6.10;;;1.50;99.90;;;;;;4997668;28;20214;-61
2022/01/12 01:04:51;;;;;;;8.63;7.20;;;1.50;99.90;;;;;;4997389;28;20549;-61
2022/01/12 01:07:17;;;;;;;7.40;6.70;;;1.50;99.90;;;;;;4997634;28;20175;-61
2022/01/12 01:09:45;;;;;;;8.07;7.23;;;1.50;99.90;;;;;;4997915;28;20168;-59
2022/01/12 01:12:11;;;;;;;9.40;7.40;;;1.40;99.90;;;;;;4997465;28;20775;-59
2022/01/12 01:14:47;;;;;;;6.67;6.07;;;1.40;99.90;;;;;;4997293;28;20523;-58
2022/01/12 01:25:32;;;;;;;8.33;7.47;;;1.40;99.90;;;;;;4977053;28;20418;-59
2022/01/12 01:27:58;;;;;;;8.10;7.03;;;1.30;99.90;;;;;;4997440;28;20419;-61
2022/01/12 01:30:24;;;;;;;6.80;6.07;;;1.40;99.90;;;;;;4997523;28;20776;-58
2022/01/12 01:32:50;;;;;;;7.97;6.13;;;1.30;99.90;;;;;;4997326;28;20418;-61
2022/01/12 01:35:17;;;;;;;7.83;7.03;;;1.30;99.90;;;;;;4996986;28;20419;-61
2022/01/12 01:37:43;;;;;;;7.47;5.90;;;1.40;99.90;;;;;;4996933;28;20200;-61
2022/01/12 01:40:10;;;;;;;7.40;6.70;;;1.30;99.90;;;;;;4997206;28;20422;-60
2022/01/12 01:42:54;;;;;;;6.27;5.63;;;1.30;99.90;;;;;;4996885;28;20164;-61
2022/01/12 01:53:39;;;;;;;9.07;7.20;;;1.30;99.90;;;;;;4977710;28;20434;-60
2022/01/12 01:56:05;;;;;;;7.20;6.20;;;1.30;99.90;;;;;;4978071;28;20412;-61
2022/01/12 01:58:31;;;;;;;5.73;5.20;;;1.30;99.90;;;;;;4996038;28;20197;-61
2022/01/12 02:00:57;;;;;;;7.37;6.67;;;1.30;99.90;;;;;;4996881;28;20407;-59
2022/01/12 02:03:27;;;;;;;6.63;5.70;;;1.30;99.90;;;;;;4996385;28;20208;-61
2022/01/12 02:05:53;;;;;;;8.37;7.47;;;1.30;99.90;;;;;;4996292;28;20616;-61
2022/01/12 02:08:19;;;;;;;7.00;6.17;;;1.30;99.90;;;;;;4996377;28;20429;-61
2022/01/12 02:10:45;;;;;;;6.87;6.00;;;1.30;99.90;;;;;;4996282;28;20409;-61
2022/01/12 02:13:10;;;;;;;7.03;6.33;;;1.30;99.90;;;;;;4995520;28;20477;-58
2022/01/12 02:15:37;;;;;;;9.73;7.50;;;1.30;99.90;;;;;;4996168;28;20180;-60
2022/01/12 02:37:13;;;;;;;12.87;9.10;;;1.20;99.90;;;;;;4996385;28;20387;-61
2022/01/12 02:42:11;;;;;;;14.63;11.50;;;1.10;99.90;;;;;;4996069;28;20422;-61
2022/01/12 02:55:33;;;;;;;13.07;10.90;;;0.80;99.90;;;;;;4995823;28;20410;-59
2022/01/12 02:57:59;;;;;;;9.87;8.70;;;0.80;99.90;;;;;;4995423;28;20465;-60
2022/01/12 03:00:34;;;;;;;11.40;8.80;;;0.90;99.90;;;;;;4995160;28;20182;-61
2022/01/12 03:03:03;;;;;;;9.50;8.27;;;1.00;99.90;;;;;;4975325;28;20442;-61
2022/01/12 03:05:45;;;;;;;12.07;8.80;;;0.90;99.90;;;;;;4976432;28;20873;-61
2022/01/12 03:08:14;;;;;;;9.47;8.47;;;0.80;99.90;;;;;;4981870;28;20926;-58
2022/01/12 03:10:40;;;;;;;12.83;8.37;;;0.80;99.90;;;;;;4995262;28;20498;-59
2022/01/12 03:13:05;;;;;;;11.63;9.20;;;0.80;99.90;;;;;;4996169;28;20432;-60
2022/01/12 03:15:39;;;;;;;9.23;8.23;;;0.90;99.90;;;;;;4996207;28;20169;-60
2022/01/12 03:18:05;;;;;;;10.10;9.10;;;0.90;99.90;;;;;;4996034;28;20261;-60
2022/01/12 03:20:30;;;;;;;8.90;8.00;;;1.00;99.90;;;;;;4995666;28;20401;-61
2022/01/12 03:22:56;;;;;;;9.27;8.33;;;1.00;99.90;;;;;;4995239;28;20425;-60
2022/01/12 03:25:22;;;;;;;9.13;7.77;;;1.00;99.90;;;;;;4995181;28;20181;-61
2022/01/12 03:27:49;;;;;;;9.00;7.57;;;1.00;99.90;;;;;;4995257;28;20176;-60
2022/01/12 03:30:15;;;;;;;9.03;8.13;;;0.90;99.90;;;;;;4994544;28;20249;-61
2022/01/12 03:32:46;;;;;;;8.13;7.37;;;0.90;99.90;;;;;;4991517;28;20416;-60
2022/01/12 03:35:25;;;;;;;15.27;9.23;;;0.80;99.90;;;;;;4948058;28;20447;-60
2022/01/12 03:38:19;;;;;;;9.00;8.00;;;0.80;99.90;;;;;;4979220;28;20459;-60
2022/01/12 03:40:39;;;;;;;10.07;8.90;;;0.80;99.90;;;;;;4994405;28;20505;-59
2022/01/12 03:43:05;;;;;;;11.03;9.93;;;0.80;99.90;;;;;;4994501;28;20434;-59
2022/01/12 03:45:30;;;;;;;8.70;7.73;;;0.80;99.90;;;;;;4994312;28;20622;-61
2022/01/12 03:47:56;;;;;;;11.20;8.63;;;0.70;99.90;;;;;;4995284;28;20205;-61
2022/01/12 03:50:22;;;;;;;10.90;8.57;;;0.80;99.90;;;;;;4994558;28;20202;-60
2022/01/12 03:52:47;;;;;;;10.27;8.70;;;0.80;99.90;;;;;;4977150;28;20595;-61
2022/01/12 03:55:13;;;;;;;12.33;8.93;;;0.80;99.90;;;;;;4994526;28;20283;-61
2022/01/12 03:57:38;;;;;;;9.27;7.93;;;0.80;99.90;;;;;;4994612;28;20257;-61
2022/01/12 04:00:05;;;;;;;10.80;8.90;;;0.90;99.90;;;;;;4993965;28;20564;-59
2022/01/12 04:02:33;;;;;;;9.43;7.87;;;0.80;99.90;;;;;;4994331;28;20170;-60
2022/01/12 04:05:10;;;;;;;8.93;8.03;;;0.70;99.90;;;;;;4976678;28;20512;-60
2022/01/12 04:10:20;;;;;;;10.70;9.20;;;0.60;99.90;;;;;;4994550;28;20411;-59
2022/01/12 04:12:46;;;;;;;11.50;9.57;;;0.60;99.90;;;;;;4994487;28;20441;-57
2022/01/12 04:15:12;;;;;;;13.30;9.40;;;0.60;99.90;;;;;;4993081;28;20281;-61
2022/01/12 04:17:37;;;;;;;10.63;9.30;;;0.60;99.90;;;;;;4994086;28;20194;-61
2022/01/12 04:20:03;;;;;;;9.57;8.57;;;0.50;99.90;;;;;;4993962;28;20168;-61
2022/01/12 04:25:14;;;;;;;11.00;9.57;;;0.50;99.90;;;;;;4993986;28;20984;-60
2022/01/12 04:27:40;;;;;;;11.20;10.00;;;0.50;99.90;;;;;;4992939;28;20425;-60
2022/01/12 04:30:06;;;;;;;10.63;9.13;;;0.50;99.90;;;;;;4993680;28;20673;-60
2022/01/12 04:32:36;;;;;;;13.10;10.50;;;0.50;99.90;;;;;;4994184;28;20461;-59
2022/01/12 04:35:03;;;;;;;10.90;9.80;;;0.50;99.90;;;;;;4993735;28;20431;-60
2022/01/12 04:37:28;;;;;;;14.17;11.73;;;0.50;99.90;;;;;;4993692;28;20464;-59
2022/01/12 04:39:54;;;;;;;14.53;10.63;;;0.50;99.90;;;;;;4993761;28;20914;-58
2022/01/12 04:42:19;;;;;;;11.03;9.43;;;0.60;99.90;;;;;;4993709;28;20178;-60
2022/01/12 04:44:48;;;;;;;10.90;9.70;;;0.60;99.90;;;;;;4993468;28;20196;-60
2022/01/12 04:47:29;;;;;;;11.07;9.97;;;0.70;99.90;;;;;;4993005;28;20261;-61
2022/01/12 04:49:56;;;;;;;14.20;11.10;;;0.70;99.90;;;;;;4975884;28;20425;-61
2022/01/12 04:52:23;;;;;;;12.27;10.97;;;0.60;99.90;;;;;;4976221;28;20425;-60
2022/01/12 04:54:48;;;;;;;10.80;9.60;;;0.60;99.90;;;;;;4993821;28;20492;-61
2022/01/12 04:57:14;;;;;;;12.33;10.80;;;0.50;99.90;;;;;;4993574;28;20844;-60
2022/01/12 04:59:53;;;;;;;13.43;11.73;;;0.50;99.90;;;;;;4993690;28;20569;-58
2022/01/12 05:08:08;;;;;;;14.80;11.73;;;0.40;99.90;;;;;;4972278;28;20465;-60
2022/01/12 05:12:50;;;;;;;13.20;10.57;;;0.40;99.90;;;;;;4972994;28;20511;-58
2022/01/12 05:13:18;;;;;;;14.70;11.37;;;0.30;99.90;;;;;;4974187;28;20430;-59
2022/01/12 05:15:43;;;;;;;15.30;12.50;;;0.30;99.90;;;;;;4973199;28;20525;-61
2022/01/12 05:18:09;;;;;;;16.50;13.50;;;0.30;99.90;;;;;;4974784;28;20201;-58
2022/01/12 05:20:35;;;;;;;16.83;12.80;;;0.30;99.90;;;;;;4976539;28;20167;-55
2022/01/12 05:23:01;;;;;;;15.27;13.17;;;0.20;99.90;;;;;;4976879;28;20172;-58
2022/01/12 05:25:26;;;;;;;17.33;13.23;;;0.20;99.90;;;;;;4977517;28;20462;-60
2022/01/12 05:27:53;;;;;;;15.63;11.90;;;0.20;99.90;;;;;;4982156;28;20171;-61
2022/01/12 05:30:19;;;;;;;15.73;12.40;;;0.30;99.90;;;;;;4986109;28;20186;-57
2022/01/12 05:32:46;;;;;;;17.10;14.57;;;0.30;99.90;;;;;;4985144;28;20410;-60
2022/01/12 05:35:13;;;;;;;17.70;13.43;;;0.30;99.90;;;;;;4988572;28;20233;-61
2022/01/12 05:37:40;;;;;;;19.63;15.20;;;0.30;99.90;;;;;;4979994;28;20457;-61
2022/01/12 05:40:06;;;;;;;16.93;13.83;;;0.20;99.90;;;;;;4981377;28;20421;-60
2022/01/12 05:42:32;;;;;;;20.30;15.80;;;0.30;99.90;;;;;;4977127;28;20479;-60
2022/01/12 05:44:58;;;;;;;17.03;15.10;;;0.30;99.90;;;;;;4971227;28;20464;-60
2022/01/12 05:49:33;;;;;;;17.30;14.93;;;0.30;99.90;;;;;;4969372;28;20179;-57
2022/01/12 05:50:23;;;;;;;17.57;13.97;;;0.30;99.90;;;;;;4968743;28;20442;-55
2022/01/12 05:52:48;;;;;;;21.90;16.20;;;0.30;99.90;;;;;;4976467;28;20455;-60
2022/01/12 05:55:15;;;;;;;23.50;17.17;;;0.20;99.90;;;;;;4977484;28;20432;-61
2022/01/12 05:57:41;;;;;;;19.90;15.60;;;0.20;99.90;;;;;;4977112;28;20254;-60
2022/01/12 06:00:13;;;;;;;18.23;16.00;;;0.20;99.90;;;;;;4977553;28;20826;-61
2022/01/12 06:02:40;;;;;;;17.73;15.53;;;0.20;99.90;;;;;;4977660;28;20428;-60
2022/01/12 06:05:07;;;;;;;15.20;13.40;;;0.20;99.90;;;;;;4977469;28;20447;-61
2022/01/12 06:07:32;;;;;;;19.70;16.60;;;0.30;99.90;;;;;;4977270;28;20422;-61
2022/01/12 06:09:58;;;;;;;22.53;18.23;;;0.20;99.90;;;;;;4960739;28;20412;-61
2022/01/12 06:12:24;;;;;;;17.70;15.63;;;0.20;99.90;;;;;;4976839;28;20167;-61
2022/01/12 06:14:49;;;;;;;19.80;16.70;;;0.20;99.90;;;;;;4977230;28;20195;-61
2022/01/12 06:17:15;;;;;;;18.10;14.80;;;0.20;99.90;;;;;;4977496;28;20550;-60
2022/01/12 06:19:40;;;;;;;20.30;16.13;;;0.30;99.90;;;;;;4976956;28;20168;-61
2022/01/12 06:22:06;;;;;;;22.27;18.00;;;0.30;99.90;;;;;;4977302;28;20178;-58
2022/01/12 06:24:32;;;;;;;20.77;17.53;;;0.40;99.90;;;;;;4975924;28;20195;-56
2022/01/12 06:26:59;;;;;;;17.27;15.00;;;0.30;99.90;;;;;;4976985;28;20167;-58
2022/01/12 06:29:38;;;;;;;20.57;16.47;;;0.30;99.90;;;;;;4976858;28;20421;-60
2022/01/12 06:32:05;;;;;;;20.33;16.60;;;0.30;99.90;;;;;;4977180;28;20420;-57
2022/01/12 06:34:31;;;;;;;20.67;17.17;;;0.40;99.90;;;;;;4977094;28;20438;-55
2022/01/12 06:36:57;;;;;;;19.93;16.50;;;0.40;99.90;;;;;;4976815;28;20493;-58
2022/01/12 06:39:23;;;;;;;23.90;17.70;;;0.30;99.90;;;;;;4976370;28;20209;-59
2022/01/12 06:41:52;;;;;;;21.20;16.27;;;0.20;99.90;;;;;;4976773;28;20675;-59
2022/01/12 06:44:20;;;;;;;23.27;17.13;;;0.20;99.90;;;;;;4976675;28;20825;-60
2022/01/12 06:46:47;;;;;;;24.00;18.10;;;0.20;99.90;;;;;;4976422;28;20920;-61
2022/01/12 06:49:16;;;;;;;22.47;18.73;;;0.30;99.90;;;;;;4976661;28;20804;-61
2022/01/12 06:51:46;;;;;;;22.40;17.60;;;0.30;99.90;;;;;;4976803;28;20408;-61
2022/01/12 06:54:13;;;;;;;25.23;19.80;;;0.30;99.90;;;;;;4975940;28;20434;-58
2022/01/12 06:56:40;;;;;;;20.30;18.10;;;0.30;99.90;;;;;;4976126;28;20777;-59
2022/01/12 06:59:07;;;;;;;21.23;17.17;;;0.30;99.90;;;;;;4976488;28;20506;-61
2022/01/12 07:01:33;;;;;;;23.83;18.33;;;0.30;99.90;;;;;;4976236;28;20407;-58
2022/01/12 07:03:59;;;;;;;23.30;18.80;;;0.30;99.90;;;;;;4975836;28;20411;-57
2022/01/12 07:06:25;;;;;;;20.87;17.37;;;0.20;99.90;;;;;;4976253;28;20435;-59
2022/01/12 07:08:51;;;;;;;25.30;18.60;;;0.30;99.90;;;;;;4975795;28;20780;-60
2022/01/12 07:11:16;;;;;;;23.80;18.60;;;0.30;99.90;;;;;;4976502;28;20256;-60
2022/01/12 07:13:42;;;;;;;24.20;20.10;;;0.40;99.90;;;;;;4976049;28;20170;-61
2022/01/12 07:16:08;;;;;;;19.77;16.40;;;0.30;99.90;;;;;;4975848;28;20203;-61
2022/01/12 07:18:33;;;;;;;18.80;15.40;;;0.30;99.90;;;;;;4975908;28;20944;-62
2022/01/12 07:20:59;;;;;;;20.40;17.77;;;0.30;99.90;;;;;;4974537;28;20244;-58
2022/01/12 07:23:26;;;;;;;27.43;19.47;;;0.30;99.90;;;;;;4972804;28;20170;-60
2022/01/12 07:25:53;;;;;;;22.00;17.43;;;0.30;99.90;;;;;;4964569;28;20282;-61
2022/01/12 07:28:19;;;;;;;24.50;18.97;;;0.20;99.90;;;;;;4956310;29;20415;-62
2022/01/12 07:30:45;;;;;;;24.53;18.67;;;0.20;99.90;;;;;;4956140;29;20417;-61
2022/01/12 07:33:12;;;;;;;21.53;17.00;;;0.20;99.90;;;;;;4956518;28;20416;-60
2022/01/12 07:35:38;;;;;;;23.87;18.03;;;0.20;99.90;;;;;;4974446;28;20826;-61
2022/01/12 07:38:03;;;;;;;25.03;19.40;;;0.30;99.90;;;;;;4975050;28;20508;-60
2022/01/12 07:40:29;;;;;;;23.03;18.27;;;0.30;99.90;;;;;;4975565;28;20410;-62
2022/01/12 07:42:55;;;;;;;22.90;18.27;;;0.40;99.90;;;;;;4975857;28;20217;-61
2022/01/12 07:45:21;;;;;;;23.23;18.37;;;0.30;99.90;;;;;;4975581;28;20835;-62
2022/01/12 07:47:47;;;;;;;24.33;19.17;;;0.30;99.90;;;;;;4975977;28;20237;-61
2022/01/12 07:50:13;;;;;;;25.23;19.60;;;0.20;99.90;;;;;;4975119;28;20518;-62
2022/01/12 07:52:39;;;;;;;27.23;20.07;;;0.10;99.90;;;;;;4975080;28;20171;-62
2022/01/12 07:55:05;;;;;;;22.60;18.23;;;0.10;99.90;;;;;;4975455;28;20445;-58
2022/01/12 07:57:31;;;;;;;23.10;19.60;;;0.20;99.90;;;;;;4974212;28;20202;-61
2022/01/12 07:59:56;;;;;;;23.33;18.63;;;0.30;99.90;;;;;;4975315;28;20760;-62
2022/01/12 08:02:22;;;;;;;27.97;20.40;;;0.40;99.90;;;;;;4975698;28;20214;-60
2022/01/12 08:04:48;;;;;;;22.63;17.40;;;0.40;99.90;;;;;;4974852;28;20209;-62
2022/01/12 08:07:14;;;;;;;24.70;19.10;;;0.40;99.90;;;;;;4973897;28;20171;-62
2022/01/12 08:09:41;;;;;;;25.67;18.93;;;0.60;99.90;;;;;;4974779;28;20181;-61
2022/01/12 08:12:08;;;;;;;21.20;17.97;;;0.70;99.90;;;;;;4974995;28;20222;-59
2022/01/12 08:14:34;;;;;;;21.37;17.90;;;0.80;99.90;;;;;;4975202;28;20426;-58
2022/01/12 08:17:00;;;;;;;23.73;18.30;;;1.10;99.90;;;;;;4974705;28;20399;-62
2022/01/12 08:19:27;;;;;;;21.23;17.43;;;1.20;99.90;;;;;;4974781;28;20475;-61
2022/01/12 08:21:52;;;;;;;20.07;17.00;;;1.20;99.90;;;;;;4973845;28;20476;-60
2022/01/12 08:24:19;;;;;;;21.40;17.70;;;1.30;99.90;;;;;;4974416;28;20492;-62
2022/01/12 08:26:44;;;;;;;22.57;17.43;;;1.40;99.90;;;;;;4974511;28;20173;-62
2022/01/12 08:29:13;;;;;;;17.93;15.70;;;1.50;99.90;;;;;;4974762;28;20774;-61
2022/01/12 08:31:39;;;;;;;20.20;16.83;;;1.60;99.90;;;;;;4974977;28;20179;-62
2022/01/12 08:34:04;;;;;;;22.80;17.90;;;1.70;99.90;;;;;;4973364;28;20425;-62
2022/01/12 08:36:30;;;;;;;17.00;15.20;;;1.80;99.90;;;;;;4974664;28;20173;-61
2022/01/12 08:38:57;;;;;;;20.53;16.83;;;2.00;99.90;;;;;;4974423;28;20204;-61
2022/01/12 08:41:23;;;;;;;18.77;16.47;;;2.10;99.90;;;;;;4974492;28;20510;-61
2022/01/12 08:43:49;;;;;;;18.00;16.10;;;2.20;99.90;;;;;;4974523;28;20409;-61
2022/01/12 08:46:15;;;;;;;17.67;15.73;;;2.10;99.90;;;;;;4974421;28;20428;-61
2022/01/12 08:48:40;;;;;;;19.90;17.80;;;2.20;99.90;;;;;;4973385;28;20169;-62
2022/01/12 08:51:06;;;;;;;18.43;16.37;;;2.20;99.90;;;;;;4974406;28;20245;-62
2022/01/12 08:53:32;;;;;;;18.00;16.10;;;2.20;99.90;;;;;;4974583;28;20183;-63
2022/01/12 08:55:57;;;;;;;17.30;15.50;;;2.20;99.90;;;;;;4973881;28;20606;-61
2022/01/12 08:58:23;;;;;;;17.17;14.93;;;2.20;99.90;;;;;;4974216;28;20448;-63
2022/01/12 09:00:48;;;;;;;22.33;16.63;;;2.20;99.90;;;;;;4974164;28;20220;-62
2022/01/12 09:03:14;;;;;;;18.43;16.47;;;2.20;99.90;;;;;;4973208;28;20224;-61
2022/01/12 09:05:40;;;;;;;17.87;15.00;;;2.30;99.90;;;;;;4973989;28;20204;-62
2022/01/12 09:08:06;;;;;;;18.90;14.80;;;2.40;99.90;;;;;;4973525;28;20610;-61
2022/01/12 09:10:32;;;;;;;19.07;16.13;;;2.40;99.90;;;;;;4974111;28;20178;-60
2022/01/12 09:12:58;;;;;;;19.77;16.53;;;2.30;99.90;;;;;;4974203;28;20432;-61
2022/01/12 09:15:25;;;;;;;19.80;16.30;;;2.20;99.90;;;;;;4975696;28;20432;-63
2022/01/12 09:17:52;;;;;;;21.93;17.10;;;2.20;99.90;;;;;;4977567;28;20666;-63
2022/01/12 09:20:18;;;;;;;17.63;15.60;;;2.20;99.90;;;;;;4977870;28;20903;-62
2022/01/12 09:22:44;;;;;;;16.50;14.80;;;2.30;99.90;;;;;;4977804;28;20404;-63
2022/01/12 09:25:10;;;;;;;21.07;17.17;;;2.30;99.90;;;;;;4977645;28;20428;-63
2022/01/12 09:27:37;;;;;;;18.07;16.20;;;2.40;99.90;;;;;;4977779;28;20256;-63
2022/01/12 09:30:05;;;;;;;21.20;17.60;;;2.30;99.90;;;;;;4977807;28;20405;-63
2022/01/12 09:32:30;;;;;;;20.47;17.23;;;2.20;99.90;;;;;;4977350;28;20474;-63
2022/01/12 09:34:56;;;;;;;19.20;17.07;;;2.30;99.90;;;;;;4977694;28;20471;-63
2022/01/12 09:37:22;;;;;;;18.40;16.47;;;2.40;99.90;;;;;;4977643;28;20673;-63
2022/01/12 09:39:48;;;;;;;17.87;15.17;;;2.50;99.90;;;;;;4977945;28;20197;-63
2022/01/12 09:42:13;;;;;;;15.10;13.50;;;2.50;99.90;;;;;;4977644;28;20173;-63
2022/01/12 09:44:47;;;;;;;15.37;12.80;;;2.60;99.90;;;;;;4960084;28;20460;-62
2022/01/12 09:47:14;;;;;;;13.90;12.40;;;2.40;99.90;;;;;;4977658;28;20608;-62
2022/01/12 09:49:42;;;;;;;15.57;13.10;;;2.40;99.90;;;;;;4976770;28;20474;-63
2022/01/12 09:52:08;;;;;;;12.23;10.87;;;2.40;99.90;;;;;;4977576;28;20423;-63
2022/01/12 09:54:34;;;;;;;16.73;13.13;;;2.30;99.90;;;;;;4977272;28;20438;-63
2022/01/12 09:57:00;;;;;;;13.30;11.70;;;2.30;99.90;;;;;;4976240;28;20424;-63
2022/01/12 09:59:27;;;;;;;13.73;12.40;;;2.40;99.90;;;;;;4977120;28;20201;-63
2022/01/12 10:01:54;;;;;;;13.60;12.20;;;2.30;99.90;;;;;;4977075;28;20173;-63
2022/01/12 10:04:22;;;;;;;14.33;12.93;;;2.40;99.90;;;;;;4975789;28;20413;-63
2022/01/12 10:06:53;;;;;;;14.00;12.53;;;2.70;99.90;;;;;;4977165;28;20729;-63
2022/01/12 10:09:46;;;;;;;13.87;11.93;;;2.80;99.90;;;;;;4976967;28;20447;-62
2022/01/12 10:12:14;;;;;;;15.30;13.80;;;2.80;99.90;;;;;;4957239;28;20417;-61
2022/01/12 10:14:49;;;;;;;16.07;13.70;;;2.80;99.90;;;;;;4976773;28;20432;-63
2022/01/12 10:17:17;;;;;;;14.63;13.13;;;2.80;99.90;;;;;;4977208;28;20877;-63
2022/01/12 10:19:43;;;;;;;14.30;12.80;;;2.90;99.90;;;;;;4976512;28;20412;-63
2022/01/12 10:22:11;;;;;;;13.30;11.93;;;2.90;99.90;;;;;;4977048;28;20781;-63
2022/01/12 10:24:39;;;;;;;15.60;13.90;;;3.00;99.90;;;;;;4977072;28;20793;-62
2022/01/12 10:27:12;;;;;;;17.67;14.20;;;3.20;99.90;;;;;;4976533;28;20405;-62
2022/01/12 10:29:38;;;;;;;14.60;12.03;;;3.30;99.90;;;;;;4975110;28;20420;-61
2022/01/12 10:32:05;;;;;;;15.03;13.00;;;3.30;99.90;;;;;;4976880;28;20827;-63
2022/01/12 10:34:40;;;;;;;14.80;13.23;;;3.40;99.90;;;;;;4976143;28;20193;-63
2022/01/12 10:37:09;;;;;;;15.23;13.20;;;3.30;99.90;;;;;;4976750;28;20458;-63
2022/01/12 10:39:39;;;;;;;13.43;12.03;;;3.30;99.90;;;;;;4976384;28;20484;-59
2022/01/12 10:42:07;;;;;;;16.43;12.93;;;3.30;99.90;;;;;;4976344;28;20890;-61
2022/01/12 10:44:40;;;;;;;16.10;14.40;;;3.40;99.90;;;;;;4976384;28;20437;-63
2022/01/12 10:47:14;;;;;;;15.57;12.27;;;3.70;99.90;;;;;;4976698;28;20381;-63
2022/01/12 10:49:43;;;;;;;15.63;14.00;;;3.70;99.90;;;;;;4976031;28;20416;-63
2022/01/12 10:52:13;;;;;;;17.03;15.23;;;3.70;99.90;;;;;;4958656;28;20419;-61
2022/01/12 10:54:44;;;;;;;17.37;15.07;;;3.40;99.90;;;;;;4959433;28;20457;-61
2022/01/12 10:57:38;;;;;;;17.87;15.50;;;3.40;99.90;;;;;;4976359;28;20429;-61
2022/01/12 11:00:10;;;;;;;15.90;14.30;;;3.30;99.90;;;;;;4977166;28;20416;-60
2022/01/12 11:02:38;;;;;;;16.80;15.17;;;3.30;99.90;;;;;;4975841;28;20412;-62
2022/01/12 11:05:05;;;;;;;16.30;14.07;;;3.40;99.90;;;;;;4993779;22;20448;-62
2022/01/12 11:07:32;;;;;;;17.07;15.00;;;3.40;99.90;;;;;;4994059;28;20422;-62
2022/01/12 11:10:00;;;;;;;17.73;15.90;;;4.00;99.90;;;;;;4995150;28;20399;-63
2022/01/12 11:12:26;;;;;;;18.10;16.27;;;5.10;99.90;;;;;;4993457;28;20408;-62
2022/01/12 11:14:52;;;;;;;20.03;14.73;;;5.80;99.90;;;;;;4995150;28;20411;-63
2022/01/12 11:17:18;;;;;;;18.60;13.87;;;6.80;99.90;;;;;;4995080;28;20400;-63
2022/01/12 11:20:18;;;;;;;14.60;13.10;;;7.90;99.90;;;;;;4993704;28;20427;-63
2022/01/12 11:22:43;;;;;;;29.90;16.97;;;8.30;99.90;;;;;;4980516;28;20300;-63
2022/01/12 11:25:18;;;;;;;16.93;13.47;;;8.20;99.10;;;;;;4994890;28;20444;-62
2022/01/12 11:27:44;;;;;;;19.07;14.63;;;8.30;99.50;;;;;;4994901;28;20170;-62
2022/01/12 11:30:21;;;;;;;17.87;14.50;;;8.50;98.40;;;;;;4994990;28;20410;-62
2022/01/12 11:33:02;;;;;;;15.10;13.60;;;8.40;98.50;;;;;;4994771;28;20765;-63
2022/01/12 11:35:32;;;;;;;13.93;11.93;;;8.80;97.40;;;;;;4974960;28;20422;-62
2022/01/12 11:37:59;;;;;;;15.43;13.73;;;8.40;97.50;;;;;;4974687;28;20973;-62
2022/01/12 11:40:54;;;;;;;14.40;12.90;;;8.80;96.50;;;;;;4975099;28;20415;-63
2022/01/12 11:43:25;;;;;;;14.77;12.43;;;8.80;97.40;;;;;;4972896;28;20423;-63
2022/01/12 11:46:09;;;;;;;15.40;12.93;;;9.90;95.70;;;;;;4975257;28;20435;-62
2022/01/12 11:48:44;;;;;;;22.30;14.23;;;10.70;93.40;;;;;;4975153;28;20397;-62
2022/01/12 11:51:10;;;;;;;13.87;12.17;;;11.90;92.80;;;;;;4975450;28;20496;-62
2022/01/12 11:53:43;;;;;;;14.30;12.83;;;12.10;90.00;;;;;;4975133;28;20445;-62
2022/01/12 11:56:11;;;;;;;16.73;11.90;;;12.20;88.30;;;;;;4974911;28;21028;-62
2022/01/12 11:58:59;;;;;;;15.73;13.40;;;12.80;88.50;;;;;;4974972;28;20527;-62
2022/01/12 12:01:45;;;;;;;11.73;10.60;;;11.50;86.20;;;;;;4975218;28;20400;-61
2022/01/12 12:04:26;;;;;;;12.33;11.17;;;12.40;87.10;;;;;;4992530;28;20823;-61
2022/01/12 12:07:05;;;;;;;13.37;12.17;;;12.10;85.10;;;;;;4994189;28;20497;-61
2022/01/12 12:09:42;;;;;;;12.93;11.63;;;12.30;85.70;;;;;;4994957;28;20833;-62
2022/01/12 12:12:32;;;;;;;12.30;11.10;;;13.30;83.60;;;;;;4994178;28;20415;-62
2022/01/12 12:15:02;;;;;;;16.63;11.97;;;12.90;84.10;;;;;;4994222;28;20432;-62
2022/01/12 12:17:30;;;;;;;12.33;11.13;;;12.90;82.20;;;;;;4993795;28;20399;-63
2022/01/12 12:19:57;;;;;;;12.03;10.20;;;12.30;81.50;;;;;;4993666;28;20408;-62
2022/01/12 12:22:26;;;;;;;12.17;10.97;;;11.80;84.00;;;;;;4994239;28;20408;-62
2022/01/12 12:24:55;;;;;;;14.20;11.80;;;12.00;83.60;;;;;;4994184;28;20408;-63
2022/01/12 12:27:22;;;;;;;16.33;12.00;;;12.40;83.50;;;;;;4993888;28;20461;-62
2022/01/12 12:29:49;;;;;;;15.73;11.67;;;13.20;81.00;;;;;;4993838;28;20393;-62
2022/01/12 12:32:17;;;;;;;17.00;11.50;;;14.30;80.80;;;;;;4994528;28;20416;-62
2022/01/12 12:34:44;;;;;;;13.87;11.57;;;13.90;76.50;;;;;;4993586;28;20403;-63
2022/01/12 12:37:13;;;;;;;14.37;12.87;;;13.90;77.60;;;;;;4994082;28;20498;-62
2022/01/12 12:39:41;;;;;;;13.40;12.00;;;13.20;78.20;;;;;;4994064;28;20480;-62
2022/01/12 12:42:19;;;;;;;13.27;12.03;;;13.90;77.20;;;;;;4993699;28;20416;-62
2022/01/12 12:44:48;;;;;;;14.23;12.43;;;15.00;76.20;;;;;;4993618;28;20384;-62
2022/01/12 12:47:26;;;;;;;14.10;12.60;;;15.10;73.50;;;;;;4993486;28;20900;-62
2022/01/12 12:49:57;;;;;;;15.10;13.60;;;13.40;75.40;;;;;;4993509;28;20484;-63
2022/01/12 12:52:34;;;;;;;14.47;12.40;;;11.50;79.00;;;;;;4992420;28;20446;-62
2022/01/12 12:55:06;;;;;;;15.60;14.10;;;8.60;88.00;;;;;;4993814;28;20906;-62
2022/01/12 12:57:32;;;;;;;18.10;14.63;;;7.90;90.90;;;;;;4994286;28;20463;-62
2022/01/12 13:00:09;;;;;;;17.07;15.27;;;7.10;93.00;;;;;;4993930;28;20415;-62
2022/01/12 13:02:41;;;;;;;15.13;13.63;;;6.90;94.40;;;;;;4993676;28;20159;-62
2022/01/12 13:05:32;;;;;;;15.73;13.47;;;6.60;95.20;;;;;;4975911;28;20467;-62
2022/01/12 13:07:58;;;;;;;17.67;14.93;;;6.30;96.10;;;;;;4983563;28;20435;-62
2022/01/12 13:10:26;;;;;;;15.87;14.13;;;6.20;97.00;;;;;;4993739;28;20446;-61
2022/01/12 13:12:58;;;;;;;14.93;13.33;;;5.70;97.50;;;;;;4993306;28;20181;-61
2022/01/12 13:15:29;;;;;;;19.13;14.83;;;5.70;98.50;;;;;;4993550;28;20427;-61
2022/01/12 13:18:06;;;;;;;15.17;13.57;;;5.70;98.90;;;;;;4993234;28;20443;-61
2022/01/12 13:23:24;;;;;;;17.00;14.53;;;5.50;99.50;;;;;;4990305;28;20498;-62
2022/01/12 13:25:54;;;;;;;17.47;15.67;;;5.50;99.80;;;;;;4974191;28;20441;-62
2022/01/12 13:28:20;;;;;;;18.30;15.80;;;5.60;99.90;;;;;;4973905;28;20401;-61
2022/01/12 13:30:55;;;;;;;15.10;12.80;;;5.50;99.90;;;;;;4973757;28;20906;-62
2022/01/12 13:33:35;;;;;;;17.27;14.80;;;5.10;99.90;;;;;;4974334;28;20179;-60
2022/01/12 13:36:16;;;;;;;15.80;12.93;;;4.90;99.90;;;;;;4993363;28;20522;-62
2022/01/12 13:38:46;;;;;;;16.47;12.80;;;4.50;99.90;;;;;;4992803;28;20886;-61
2022/01/12 13:41:16;;;;;;;15.97;14.20;;;4.30;99.90;;;;;;4993384;28;20417;-62
2022/01/12 13:43:45;;;;;;;17.00;14.43;;;4.50;99.90;;;;;;4993420;28;20405;-62
2022/01/12 13:46:18;;;;;;;13.73;12.30;;;4.80;99.90;;;;;;4993042;28;20424;-62
2022/01/12 13:49:21;;;;;;;17.97;13.30;;;4.70;99.90;;;;;;4993263;28;20475;-61
2022/01/12 13:51:59;;;;;;;16.13;14.20;;;4.70;99.90;;;;;;4993438;28;20490;-62
2022/01/12 13:54:41;;;;;;;13.60;12.20;;;4.40;99.90;;;;;;4992828;28;20451;-59
2022/01/12 13:57:09;;;;;;;22.23;13.90;;;4.10;99.90;;;;;;4974923;28;20459;-59
2022/01/12 13:59:50;;;;;;;15.10;13.50;;;4.10;99.90;;;;;;4992501;28;20534;-61